Time;durP1;ratioP1;P1;durP2;ratioP2;P2;SDS_P1;SDS_P2;PMS_P1;PMS_P2;Temp;Humidity;BMP_temperature;BMP_pressure;BME280_temperature;BME280_humidity;BME280_pressure;Samples;Min_cycle;Max_cycle;Signal;HPM_P1;HPM_P2
2022/09/04 06:43:02;;;;;;;16.10;15.40;;;19.40;99.90;;;;;;5538693;23;20673;-74
2022/09/04 06:45:39;;;;;;;16.40;15.60;;;19.90;99.90;;;;;;4951210;29;20465;-76
2022/09/04 06:48:18;;;;;;;17.23;16.33;;;20.30;99.90;;;;;;4953111;29;20974;-75
2022/09/04 06:50:54;;;;;;;16.67;15.77;;;20.60;99.90;;;;;;4952870;29;20982;-75
2022/09/04 06:53:37;;;;;;;16.63;15.83;;;20.70;99.90;;;;;;4953116;29;20456;-73
2022/09/04 06:56:15;;;;;;;16.07;15.37;;;21.20;99.90;;;;;;4953034;29;20491;-73
2022/09/04 06:58:57;;;;;;;17.03;16.07;;;21.30;99.90;;;;;;4952610;29;20460;-73
2022/09/04 07:01:39;;;;;;;16.07;15.37;;;21.20;99.90;;;;;;4952704;29;20456;-73
2022/09/04 07:04:19;;;;;;;16.03;15.43;;;21.20;99.90;;;;;;4952956;29;20817;-73
2022/09/04 07:06:56;;;;;;;16.07;15.17;;;21.40;99.90;;;;;;4952495;29;20960;-73
2022/09/04 07:09:30;;;;;;;14.87;14.03;;;21.70;99.90;;;;;;4952518;29;20452;-74
2022/09/04 07:12:16;;;;;;;15.27;14.57;;;22.00;99.90;;;;;;4952339;29;20467;-74
2022/09/04 07:15:14;;;;;;;16.30;15.50;;;22.20;99.90;;;;;;4952248;29;20468;-72
2022/09/04 07:17:53;;;;;;;15.03;14.43;;;22.10;99.90;;;;;;4952425;29;20887;-74
2022/09/04 07:20:26;;;;;;;15.03;14.33;;;22.20;99.90;;;;;;4952419;29;20503;-73
2022/09/04 07:23:18;;;;;;;14.27;13.77;;;22.10;99.90;;;;;;4952562;29;20455;-75
2022/09/04 07:25:49;;;;;;;14.40;13.80;;;22.40;99.90;;;;;;4951892;29;20456;-75
2022/09/04 07:28:43;;;;;;;15.33;14.53;;;22.70;99.90;;;;;;4952264;29;20456;-75
2022/09/04 07:31:16;;;;;;;14.53;13.93;;;22.90;99.90;;;;;;4952037;29;20848;-76
2022/09/04 07:33:52;;;;;;;14.73;14.13;;;23.20;99.90;;;;;;4952394;29;20507;-75
2022/09/04 07:36:24;;;;;;;14.87;14.17;;;23.30;99.90;;;;;;4952492;29;20536;-75
2022/09/04 18:25:10;;;;;;;14.30;13.47;;;22.20;99.90;;;;;;5083605;27;20561;-78
2022/09/04 18:27:43;;;;;;;12.77;12.03;;;22.10;99.90;;;;;;5085407;28;20453;-78
2022/09/04 18:30:13;;;;;;;12.70;11.90;;;22.00;99.90;;;;;;5085650;28;20451;-79
2022/09/04 18:32:49;;;;;;;13.80;13.03;;;21.90;99.90;;;;;;5085316;28;20446;-79
2022/09/04 18:35:22;;;;;;;14.07;13.17;;;21.80;99.90;;;;;;5085066;28;20452;-79
2022/09/04 18:37:54;;;;;;;12.70;12.20;;;21.80;99.90;;;;;;5085285;28;20986;-78
2022/09/04 18:40:25;;;;;;;14.93;13.57;;;21.70;99.90;;;;;;5085161;28;20551;-78
2022/09/04 18:42:59;;;;;;;13.47;12.77;;;21.70;99.90;;;;;;5085430;28;20893;-78
2022/09/04 18:45:31;;;;;;;12.60;11.90;;;21.50;99.90;;;;;;5084796;28;20477;-79
2022/09/04 18:47:59;;;;;;;13.40;12.80;;;21.40;99.90;;;;;;5085453;28;20453;-79
2022/09/04 18:50:31;;;;;;;13.83;12.90;;;21.20;99.90;;;;;;5085352;28;20550;-79
2022/09/04 18:53:05;;;;;;;14.90;13.83;;;21.10;99.90;;;;;;5085506;28;20821;-80
2022/09/04 18:55:40;;;;;;;14.10;13.17;;;20.90;99.90;;;;;;5085119;28;20471;-79
2022/09/04 18:58:36;;;;;;;14.23;13.07;;;20.80;99.90;;;;;;5085524;28;20455;-79
2022/09/04 19:01:10;;;;;;;19.03;13.73;;;20.80;99.90;;;;;;5084735;28;20450;-78
2022/09/04 19:03:43;;;;;;;14.70;13.30;;;20.80;99.90;;;;;;5084783;28;20490;-79
2022/09/04 19:06:13;;;;;;;14.70;13.60;;;20.70;99.90;;;;;;5084912;28;20925;-79
2022/09/04 19:08:46;;;;;;;14.67;13.30;;;20.70;99.90;;;;;;5084830;28;20453;-78
2022/09/04 19:11:22;;;;;;;15.00;14.00;;;20.60;99.90;;;;;;5084700;28;20454;-79
2022/09/04 19:13:55;;;;;;;14.83;13.70;;;20.50;99.90;;;;;;5084565;28;20462;-78
2022/09/04 19:16:29;;;;;;;13.50;12.53;;;20.30;99.90;;;;;;5084379;28;20500;-79
2022/09/04 19:19:04;;;;;;;13.73;12.93;;;20.30;99.90;;;;;;5084722;28;20887;-80
2022/09/04 19:21:36;;;;;;;13.70;12.80;;;20.20;99.90;;;;;;5084151;28;20449;-79
2022/09/04 19:24:20;;;;;;;15.00;12.33;;;20.10;99.90;;;;;;5081492;28;21035;-79
2022/09/04 19:27:06;;;;;;;13.47;12.83;;;20.00;99.90;;;;;;5070405;28;20460;-78
2022/09/04 19:29:41;;;;;;;13.60;13.00;;;19.90;99.90;;;;;;5070159;28;20462;-79
2022/09/04 19:32:11;;;;;;;13.90;13.17;;;19.80;99.90;;;;;;5070219;28;20969;-80
2022/09/04 19:34:45;;;;;;;14.70;13.60;;;19.70;99.90;;;;;;5070787;28;20803;-80
2022/09/04 19:37:19;;;;;;;12.97;12.37;;;19.70;99.90;;;;;;5070258;28;20466;-79
2022/09/04 19:39:52;;;;;;;13.57;12.50;;;19.60;99.90;;;;;;5069677;28;20961;-80
2022/09/04 19:42:22;;;;;;;13.13;12.33;;;19.60;99.90;;;;;;5069130;28;20938;-79
2022/09/04 19:44:52;;;;;;;13.03;12.30;;;19.50;99.90;;;;;;5069386;28;21273;-79
2022/09/04 19:47:35;;;;;;;13.03;12.33;;;19.60;99.90;;;;;;5069394;28;20459;-80
2022/09/04 19:50:14;;;;;;;12.03;11.53;;;19.60;99.90;;;;;;5069399;28;20517;-79
2022/09/04 19:52:49;;;;;;;12.67;12.17;;;19.60;99.90;;;;;;5070081;28;20524;-81
2022/09/04 19:55:17;;;;;;;13.23;12.63;;;19.50;99.90;;;;;;5069379;28;20442;-79
2022/09/04 19:57:47;;;;;;;13.37;12.67;;;19.50;99.90;;;;;;5069875;28;20851;-78
2022/09/04 20:00:22;;;;;;;14.20;13.50;;;19.40;99.90;;;;;;5069643;28;20451;-78
2022/09/04 20:02:51;;;;;;;13.67;12.57;;;19.50;99.90;;;;;;5069484;28;20541;-78
2022/09/04 20:05:23;;;;;;;14.00;13.00;;;19.60;99.90;;;;;;5068859;28;20454;-78
2022/09/04 20:07:54;;;;;;;12.57;12.07;;;19.60;99.90;;;;;;5069525;28;20443;-78
2022/09/04 20:10:30;;;;;;;13.67;12.97;;;19.60;99.90;;;;;;5069376;28;20455;-78
2022/09/04 20:13:05;;;;;;;13.23;12.57;;;19.60;99.90;;;;;;5068983;28;20478;-79
2022/09/04 20:15:37;;;;;;;13.03;12.40;;;19.60;99.90;;;;;;5069065;28;20839;-79
2022/09/04 20:18:11;;;;;;;13.80;12.53;;;19.50;99.90;;;;;;5069187;28;20534;-79
2022/09/04 20:20:48;;;;;;;14.00;13.10;;;19.50;99.90;;;;;;5069214;28;20478;-79
2022/09/04 20:23:20;;;;;;;18.60;14.27;;;19.50;99.90;;;;;;5068768;28;20503;-79
2022/09/04 20:25:56;;;;;;;15.50;14.10;;;19.40;99.90;;;;;;5068907;28;20447;-78
2022/09/04 20:28:31;;;;;;;19.17;14.60;;;19.40;99.90;;;;;;5068900;28;20541;-79
2022/09/04 20:31:21;;;;;;;15.07;13.80;;;19.30;99.90;;;;;;5068757;28;20450;-79
2022/09/04 20:33:50;;;;;;;14.90;14.10;;;19.20;99.90;;;;;;5068679;28;20550;-79
2022/09/04 20:36:20;;;;;;;14.77;13.70;;;19.20;99.90;;;;;;5067487;28;20918;-78
2022/09/04 20:38:56;;;;;;;14.00;13.10;;;19.20;99.90;;;;;;5068666;28;20518;-79
2022/09/04 20:41:28;;;;;;;14.27;13.47;;;19.20;99.90;;;;;;5068542;28;20447;-78
2022/09/04 20:44:05;;;;;;;13.43;12.73;;;19.20;99.90;;;;;;5068551;28;20482;-79
2022/09/04 20:46:40;;;;;;;13.77;13.07;;;19.20;99.90;;;;;;5068276;28;20443;-78
2022/09/04 20:49:11;;;;;;;12.70;12.00;;;19.20;99.90;;;;;;5068512;28;20461;-79
2022/09/04 20:51:50;;;;;;;14.07;13.10;;;19.20;99.90;;;;;;5068665;28;20776;-78
2022/09/04 20:54:38;;;;;;;14.93;13.80;;;19.20;99.90;;;;;;5067865;28;20529;-78
2022/09/04 20:57:10;;;;;;;14.27;13.27;;;19.10;99.90;;;;;;5068252;28;20465;-78
2022/09/04 20:59:47;;;;;;;13.90;13.20;;;19.10;99.90;;;;;;5068244;28;20470;-78
2022/09/04 21:02:24;;;;;;;15.67;14.20;;;19.00;99.90;;;;;;5067799;28;20458;-78
2022/09/04 21:04:59;;;;;;;15.20;14.10;;;18.90;99.90;;;;;;5068015;28;20499;-78
2022/09/04 21:07:32;;;;;;;16.20;14.30;;;18.90;99.90;;;;;;5068293;28;20455;-78
2022/09/04 21:10:07;;;;;;;15.70;14.57;;;18.90;99.90;;;;;;5067958;28;20905;-78
2022/09/04 21:12:37;;;;;;;17.83;14.37;;;18.90;99.90;;;;;;5067568;28;20455;-78
2022/09/04 21:15:14;;;;;;;22.80;15.73;;;18.90;99.90;;;;;;5068103;28;20478;-78
2022/09/04 21:18:09;;;;;;;14.87;13.73;;;18.90;99.90;;;;;;5068002;28;20458;-78
2022/09/04 21:21:09;;;;;;;14.03;13.23;;;18.90;99.90;;;;;;5067824;28;20926;-79
2022/09/04 21:23:57;;;;;;;15.07;13.83;;;18.80;99.90;;;;;;5067897;28;20495;-79
2022/09/04 21:26:38;;;;;;;15.97;14.67;;;18.80;99.90;;;;;;5067700;28;20455;-79
2022/09/04 21:29:29;;;;;;;15.43;14.33;;;18.80;99.90;;;;;;5068334;28;20469;-76
2022/09/04 21:32:23;;;;;;;14.10;13.30;;;18.70;99.90;;;;;;5066629;28;20846;-74
2022/09/04 21:35:01;;;;;;;15.53;14.43;;;18.60;99.90;;;;;;5065616;28;20466;-74
2022/09/04 21:37:40;;;;;;;15.47;14.33;;;18.60;99.90;;;;;;5068859;28;20894;-75
2022/09/04 21:40:44;;;;;;;14.97;14.00;;;18.60;99.90;;;;;;5067830;28;20458;-76
2022/09/04 21:43:31;;;;;;;16.27;15.17;;;18.50;99.90;;;;;;5068111;28;20454;-75
2022/09/04 21:46:11;;;;;;;24.93;17.20;;;18.40;99.90;;;;;;5068195;28;20466;-77
2022/09/04 21:49:00;;;;;;;23.80;16.10;;;18.40;99.90;;;;;;5068806;28;20483;-74
2022/09/04 21:51:51;;;;;;;16.60;15.20;;;18.30;99.90;;;;;;5068782;28;20455;-74
2022/09/04 21:54:35;;;;;;;15.77;14.50;;;18.30;99.90;;;;;;5068174;28;20470;-74
2022/09/04 21:57:44;;;;;;;15.60;14.33;;;18.20;99.90;;;;;;5068495;28;20950;-76
2022/09/04 22:00:16;;;;;;;16.00;14.90;;;18.20;99.90;;;;;;5068093;28;20439;-74
2022/09/04 22:03:06;;;;;;;15.70;14.80;;;18.20;99.90;;;;;;5068400;28;21029;-75
2022/09/04 22:05:45;;;;;;;15.50;14.20;;;18.20;99.90;;;;;;5065704;28;21031;-77
2022/09/04 22:08:30;;;;;;;16.33;14.60;;;18.20;99.90;;;;;;5068021;28;20451;-74
2022/09/04 22:11:12;;;;;;;17.33;16.07;;;18.10;99.90;;;;;;5068258;28;20478;-75
2022/09/04 22:13:54;;;;;;;16.40;15.50;;;18.10;99.90;;;;;;5068245;28;20446;-75
2022/09/04 22:16:41;;;;;;;16.67;15.67;;;18.10;99.90;;;;;;5067965;28;21004;-76
2022/09/04 22:19:37;;;;;;;16.37;15.57;;;18.10;99.90;;;;;;5068370;28;20879;-76
2022/09/04 22:22:24;;;;;;;16.50;15.23;;;18.00;99.90;;;;;;5068343;28;20512;-75
2022/09/04 22:25:15;;;;;;;16.20;15.30;;;18.00;99.90;;;;;;5068137;28;20522;-76
2022/09/04 22:28:24;;;;;;;16.57;15.07;;;17.90;99.90;;;;;;5067882;28;20459;-75
2022/09/04 22:31:15;;;;;;;15.73;14.63;;;17.80;99.90;;;;;;5068244;28;20455;-75
2022/09/04 22:34:26;;;;;;;15.73;15.00;;;17.70;99.90;;;;;;5067995;28;20467;-75
2022/09/04 22:37:20;;;;;;;16.37;15.20;;;17.70;99.90;;;;;;5068026;28;20465;-76
2022/09/04 22:40:07;;;;;;;17.57;16.30;;;17.60;99.90;;;;;;5067814;28;20455;-73
2022/09/04 22:42:47;;;;;;;17.10;16.00;;;17.50;99.90;;;;;;5067329;28;20510;-75
2022/09/04 22:45:43;;;;;;;16.40;15.27;;;17.50;99.90;;;;;;5067736;28;20517;-75
2022/09/04 22:48:42;;;;;;;17.73;16.27;;;17.50;99.90;;;;;;5067536;28;20451;-75
2022/09/04 22:51:22;;;;;;;17.67;16.40;;;17.50;99.90;;;;;;5067456;28;20505;-75
2022/09/04 22:54:12;;;;;;;17.73;16.67;;;17.50;99.90;;;;;;5067771;28;20457;-76
2022/09/04 22:56:52;;;;;;;16.80;15.90;;;17.50;99.90;;;;;;5067868;28;20450;-74
2022/09/04 22:59:54;;;;;;;15.90;15.10;;;17.50;99.90;;;;;;5068402;28;20934;-75
2022/09/04 23:02:38;;;;;;;15.10;14.20;;;17.50;99.90;;;;;;5071881;28;20465;-74
2022/09/04 23:05:35;;;;;;;16.30;14.80;;;17.40;99.90;;;;;;5071456;28;20494;-74
2022/09/04 23:08:33;;;;;;;17.93;16.47;;;17.40;99.90;;;;;;5040507;28;20447;-74
2022/09/04 23:11:15;;;;;;;20.10;17.73;;;17.30;99.90;;;;;;5071182;28;20450;-74
2022/09/04 23:14:08;;;;;;;20.33;18.43;;;17.30;99.90;;;;;;5070953;28;20484;-74
2022/09/04 23:16:49;;;;;;;21.57;19.53;;;17.30;99.90;;;;;;5068390;28;20524;-74
2022/09/04 23:19:42;;;;;;;22.20;18.67;;;17.20;99.90;;;;;;5070703;28;20646;-74
2022/09/04 23:22:12;;;;;;;19.00;17.27;;;17.20;99.90;;;;;;5071355;28;20488;-74
2022/09/04 23:25:02;;;;;;;19.00;17.70;;;17.20;99.90;;;;;;5068900;28;20906;-74
2022/09/04 23:27:33;;;;;;;18.50;17.10;;;17.20;99.90;;;;;;5070842;28;20626;-74
2022/09/04 23:30:11;;;;;;;18.33;17.03;;;17.20;99.90;;;;;;5070883;28;20741;-73
2022/09/04 23:33:09;;;;;;;16.33;15.43;;;17.20;99.90;;;;;;5071095;28;20546;-74
